createdAt,value
2022-11-25T00:01:42.189Z,18.00
2022-11-25T00:04:10.476Z,19.58
2022-11-25T00:06:44.264Z,18.13
2022-11-25T00:09:14.258Z,18.02
2022-11-25T00:11:44.246Z,17.08
2022-11-25T00:14:15.982Z,18.63
2022-11-25T00:16:48.655Z,18.10
2022-11-25T00:19:17.216Z,17.42
2022-11-25T00:21:45.189Z,18.70
2022-11-25T00:24:20.036Z,17.45
2022-11-25T00:26:48.077Z,15.60
2022-11-25T00:29:17.324Z,17.10
2022-11-25T00:31:46.933Z,16.10
2022-11-25T00:34:15.890Z,17.00
2022-11-25T00:36:44.394Z,17.25
2022-11-25T00:39:14.793Z,17.23
2022-11-25T00:42:01.064Z,17.25
2022-11-25T00:44:40.483Z,15.95
2022-11-25T00:47:12.733Z,18.00
2022-11-25T00:49:45.277Z,16.60
2022-11-25T00:52:17.070Z,16.40
2022-11-25T00:54:47.867Z,19.77
2022-11-25T00:57:17.254Z,18.83
2022-11-25T00:59:46.004Z,16.23
2022-11-25T01:02:19.070Z,16.42
2022-11-25T01:04:47.413Z,18.33
2022-11-25T01:07:17.451Z,16.40
2022-11-25T01:09:46.144Z,17.55
2022-11-25T01:12:14.612Z,18.25
2022-11-25T01:14:42.822Z,19.38
2022-11-25T01:17:10.959Z,19.10
2022-11-25T01:19:40.709Z,18.80
2022-11-25T01:22:09.339Z,20.17
2022-11-25T01:24:37.675Z,17.95
2022-11-25T01:27:05.873Z,19.77
2022-11-25T01:29:34.326Z,21.73
2022-11-25T01:32:02.402Z,20.45
2022-11-25T01:34:32.717Z,19.67
2022-11-25T01:37:03.098Z,20.27
2022-11-25T01:39:33.169Z,20.92
2022-11-25T01:42:02.861Z,20.83
2022-11-25T01:44:32.243Z,19.98
2022-11-25T01:47:06.884Z,19.08
2022-11-25T01:49:40.246Z,19.63
2022-11-25T01:52:19.258Z,19.08
2022-11-25T01:54:56.857Z,18.05
2022-11-25T01:57:29.604Z,19.33
2022-11-25T02:00:01.785Z,17.83
2022-11-25T02:02:32.731Z,29.48
2022-11-25T02:05:02.405Z,19.10
2022-11-25T02:07:36.061Z,16.77
2022-11-25T02:10:08.388Z,19.05
2022-11-25T02:12:38.280Z,17.98
2022-11-25T02:15:08.336Z,17.23
2022-11-25T02:17:38.936Z,18.58
2022-11-25T02:20:11.388Z,19.25
2022-11-25T02:22:52.242Z,17.70
2022-11-25T02:25:24.939Z,21.10
2022-11-25T02:27:56.161Z,20.27
2022-11-25T02:30:29.209Z,21.40
2022-11-25T02:33:00.219Z,22.00
2022-11-25T02:35:34.825Z,21.90
2022-11-25T02:38:08.942Z,21.90
2022-11-25T02:40:44.810Z,20.92
2022-11-25T02:43:13.842Z,21.10
2022-11-25T02:45:49.734Z,20.17
2022-11-25T02:48:17.956Z,19.92
2022-11-25T02:50:46.407Z,20.48
2022-11-25T02:53:16.450Z,19.67
2022-11-25T02:55:46.086Z,19.33
2022-11-25T02:58:14.862Z,21.30
2022-11-25T03:00:43.797Z,20.25
2022-11-25T03:03:13.242Z,21.10
2022-11-25T03:05:41.994Z,19.00
2022-11-25T03:08:10.975Z,19.80
2022-11-25T03:10:40.027Z,19.27
2022-11-25T03:13:10.296Z,18.33
2022-11-25T03:15:41.851Z,21.10
2022-11-25T03:18:09.934Z,19.80
2022-11-25T03:20:38.412Z,19.92
2022-11-25T03:23:08.547Z,18.40
2022-11-25T03:25:41.062Z,19.88
2022-11-25T03:28:12.290Z,19.50
2022-11-25T03:30:40.665Z,18.77
2022-11-25T03:33:09.006Z,19.65
2022-11-25T03:35:37.090Z,19.52
2022-11-25T03:38:06.049Z,19.10
2022-11-25T03:40:37.657Z,20.40
2022-11-25T03:43:07.175Z,19.75
2022-11-25T03:45:36.994Z,19.40
2022-11-25T03:48:09.023Z,20.75
2022-11-25T03:50:38.795Z,20.30
2022-11-25T03:53:07.070Z,20.83
2022-11-25T03:55:37.139Z,22.02
2022-11-25T03:58:05.752Z,20.25
2022-11-25T04:00:35.817Z,18.00
2022-11-25T04:03:06.558Z,18.75
2022-11-25T04:05:34.959Z,19.48
2022-11-25T04:08:07.695Z,18.63
2022-11-25T04:10:37.609Z,18.80
2022-11-25T04:13:06.669Z,18.17
2022-11-25T04:15:46.715Z,18.73
2022-11-25T04:18:16.685Z,18.20
2022-11-25T04:20:45.111Z,20.20
2022-11-25T04:23:14.907Z,20.17
2022-11-25T04:25:51.349Z,16.33
2022-11-25T04:28:27.509Z,19.15
2022-11-25T04:30:57.383Z,20.15
2022-11-25T04:33:28.215Z,21.15
2022-11-25T04:35:56.417Z,20.13
2022-11-25T04:38:25.780Z,21.35
2022-11-25T04:40:53.904Z,20.42
2022-11-25T04:43:24.355Z,22.05
2022-11-25T04:46:17.183Z,21.90
2022-11-25T04:48:51.163Z,20.83
2022-11-25T04:51:20.574Z,19.83
2022-11-25T04:53:52.488Z,22.55
2022-11-25T04:56:21.975Z,21.20
2022-11-25T04:59:10.714Z,19.48
2022-11-25T05:01:42.893Z,19.05
2022-11-25T05:04:35.862Z,21.63
2022-11-25T05:07:04.236Z,20.95
2022-11-25T05:09:32.359Z,22.35
2022-11-25T05:12:20.276Z,20.20
2022-11-25T05:14:49.322Z,19.98
2022-11-25T05:17:19.667Z,19.85
2022-11-25T05:19:49.912Z,19.42
2022-11-25T05:22:24.971Z,19.05
2022-11-25T05:24:53.796Z,19.92
2022-11-25T05:27:23.194Z,19.30
2022-11-25T05:29:55.965Z,19.63
2022-11-25T05:32:27.183Z,20.92
2022-11-25T05:35:07.886Z,18.60
2022-11-25T05:37:36.257Z,17.88
2022-11-25T05:40:08.271Z,20.33
2022-11-25T05:43:03.162Z,21.80
2022-11-25T05:45:33.610Z,20.80
2022-11-25T05:48:06.972Z,19.48
2022-11-25T05:50:40.989Z,19.38
2022-11-25T05:53:17.842Z,20.92
2022-11-25T05:55:56.187Z,20.35
2022-11-25T05:58:42.752Z,19.58
2022-11-25T06:01:12.542Z,19.90
2022-11-25T06:03:41.121Z,19.73
2022-11-25T06:06:12.947Z,19.33
2022-11-25T06:08:41.337Z,18.95
2022-11-25T06:11:11.909Z,18.30
2022-11-25T06:13:44.265Z,17.63
2022-11-25T06:16:14.998Z,19.58
2022-11-25T06:18:45.207Z,18.80
2022-11-25T06:21:19.376Z,21.23
2022-11-25T06:23:47.789Z,21.33
2022-11-25T06:26:21.011Z,19.95
2022-11-25T06:28:50.560Z,19.60
2022-11-25T06:31:21.074Z,21.27
2022-11-25T06:34:06.675Z,21.40
2022-11-25T06:36:36.673Z,25.05
2022-11-25T06:39:09.584Z,22.50
2022-11-25T06:41:37.819Z,20.35
2022-11-25T06:44:06.431Z,21.92
2022-11-25T06:46:34.805Z,23.38
2022-11-25T06:49:03.270Z,21.70
2022-11-25T06:51:31.504Z,22.33
2022-11-25T06:54:01.324Z,21.80
2022-11-25T06:56:30.374Z,22.58
2022-11-25T06:58:58.427Z,22.13
2022-11-25T07:01:28.986Z,23.15
2022-11-25T07:04:00.120Z,23.92
2022-11-25T07:06:28.559Z,25.13
2022-11-25T07:08:57.672Z,24.23
2022-11-25T07:11:28.745Z,23.75
2022-11-25T07:13:58.615Z,26.67
2022-11-25T07:16:27.248Z,25.80
2022-11-25T07:18:58.127Z,27.75
2022-11-25T07:21:27.152Z,26.50
2022-11-25T07:23:55.218Z,28.65
2022-11-25T07:26:28.120Z,30.75
2022-11-25T07:29:03.830Z,32.15
2022-11-25T07:32:10.785Z,32.38
2022-11-25T07:35:04.217Z,30.38
2022-11-25T07:37:43.089Z,28.75
2022-11-25T07:40:13.733Z,29.08
2022-11-25T07:43:09.845Z,27.98
2022-11-25T07:46:38.182Z,27.70
2022-11-25T07:49:07.873Z,26.23
2022-11-25T07:51:37.516Z,27.33
2022-11-25T07:54:07.915Z,26.75
2022-11-25T07:56:37.824Z,27.95
2022-11-25T07:59:08.934Z,29.00
2022-11-25T08:01:38.102Z,28.85
2022-11-25T08:04:07.838Z,28.75
2022-11-25T08:06:39.733Z,24.83
2022-11-25T08:09:10.412Z,26.35
2022-11-25T08:11:38.954Z,28.63
2022-11-25T08:14:10.424Z,27.05
2022-11-25T08:16:39.005Z,28.70
2022-11-25T08:19:09.936Z,26.92
2022-11-25T08:21:38.041Z,44.63
2022-11-25T08:24:07.094Z,27.02
2022-11-25T08:26:38.127Z,24.98
2022-11-25T08:29:08.128Z,24.20
2022-11-25T08:31:42.823Z,23.80
2022-11-25T08:34:17.725Z,24.20
2022-11-25T08:36:48.641Z,22.58
2022-11-25T08:39:44.266Z,23.73
2022-11-25T08:42:09.004Z,22.42
2022-11-25T08:44:38.128Z,25.23
2022-11-25T08:47:09.958Z,23.08
2022-11-25T08:49:41.970Z,21.77
2022-11-25T08:52:11.534Z,23.50
2022-11-25T08:54:42.045Z,21.80
2022-11-25T08:57:10.151Z,23.55
2022-11-25T08:59:40.581Z,23.17
2022-11-25T09:02:16.192Z,22.02
2022-11-25T09:04:44.680Z,23.50
2022-11-25T09:07:13.044Z,22.40
2022-11-25T09:09:41.849Z,22.58
2022-11-25T09:12:10.060Z,21.80
2022-11-25T09:14:38.211Z,22.73
2022-11-25T09:17:12.280Z,22.05
2022-11-25T09:19:40.724Z,22.63
2022-11-25T09:22:09.590Z,22.23
2022-11-25T09:24:38.088Z,22.63
2022-11-25T09:27:06.804Z,21.92
2022-11-25T09:29:35.586Z,18.50
2022-11-25T09:32:04.140Z,20.67
2022-11-25T09:34:33.630Z,20.58
2022-11-25T09:37:01.777Z,20.45
2022-11-25T09:39:29.969Z,19.10
2022-11-25T09:42:34.876Z,19.27
2022-11-25T09:45:32.221Z,20.65
2022-11-25T09:48:13.167Z,18.60
2022-11-25T09:50:59.475Z,16.70
2022-11-25T09:53:41.368Z,17.30
2022-11-25T09:56:16.530Z,18.35
2022-11-25T09:58:52.291Z,15.03
2022-11-25T10:01:23.905Z,16.20
2022-11-25T10:03:59.080Z,14.82
2022-11-25T10:06:31.106Z,13.15
2022-11-25T10:09:02.285Z,13.90
2022-11-25T10:11:44.429Z,12.90
2022-11-25T10:14:20.099Z,14.45
2022-11-25T10:16:52.707Z,14.05
2022-11-25T10:19:32.857Z,13.40
2022-11-25T10:22:12.637Z,12.60
2022-11-25T10:24:41.559Z,13.30
2022-11-25T10:27:19.414Z,12.88
2022-11-25T10:29:57.420Z,11.00
2022-11-25T10:32:28.357Z,11.68
2022-11-25T10:35:00.340Z,12.55
2022-11-25T10:37:37.886Z,12.93
2022-11-25T10:40:07.317Z,12.20
2022-11-25T10:42:37.134Z,13.07
2022-11-25T10:45:11.015Z,13.27
2022-11-25T10:47:59.322Z,13.82
2022-11-25T10:50:35.295Z,13.20
2022-11-25T10:53:14.670Z,12.30
2022-11-25T10:55:59.664Z,10.00
2022-11-25T10:58:31.959Z,9.80
2022-11-25T11:01:06.423Z,9.73
2022-11-25T11:03:34.730Z,11.82
2022-11-25T11:06:03.216Z,11.85
2022-11-25T11:08:40.803Z,11.57
2022-11-25T11:11:20.333Z,12.43
2022-11-25T11:13:51.575Z,12.60
2022-11-25T11:16:28.891Z,12.82
2022-11-25T11:18:57.510Z,13.13
2022-11-25T11:21:30.525Z,12.50
2022-11-25T11:24:01.403Z,12.82
2022-11-25T11:26:31.789Z,12.32
2022-11-25T11:29:11.111Z,12.13
2022-11-25T11:31:45.618Z,12.75
2022-11-25T11:34:31.446Z,11.00
2022-11-25T11:37:17.031Z,10.05
2022-11-25T11:40:01.390Z,11.18
2022-11-25T11:42:45.093Z,10.52
2022-11-25T11:45:32.826Z,10.95
2022-11-25T11:48:13.271Z,11.13
2022-11-25T11:50:47.537Z,11.27
2022-11-25T11:53:24.214Z,11.10
2022-11-25T11:59:37.968Z,11.05
2022-11-25T12:02:24.127Z,12.10
2022-11-25T12:05:19.035Z,13.25
2022-11-25T12:08:01.593Z,11.80
2022-11-25T12:10:38.862Z,11.00
2022-11-25T12:13:18.517Z,9.73
2022-11-25T12:15:52.830Z,9.70
2022-11-25T12:18:46.121Z,9.80
2022-11-25T12:21:45.546Z,9.55
2022-11-25T12:24:22.385Z,8.38
2022-11-25T12:26:57.272Z,10.38
2022-11-25T12:29:46.808Z,8.50
2022-11-25T12:33:08.090Z,8.32
2022-11-25T12:35:47.413Z,8.95
2022-11-25T12:38:32.078Z,8.48
2022-11-25T12:41:13.787Z,10.63
2022-11-25T12:43:44.674Z,10.00
2022-11-25T12:46:24.611Z,12.13
2022-11-25T12:48:54.665Z,13.00
2022-11-25T12:51:41.247Z,14.50
2022-11-25T12:54:22.241Z,14.05
2022-11-25T12:57:05.441Z,13.27
2022-11-25T12:59:49.880Z,12.70
2022-11-25T13:02:45.055Z,12.95
2022-11-25T13:05:43.711Z,13.18
2022-11-25T13:08:24.563Z,12.07
2022-11-25T13:11:18.791Z,12.68
2022-11-25T13:13:53.575Z,12.32
2022-11-25T13:16:24.044Z,12.73
2022-11-25T13:18:54.480Z,12.32
2022-11-25T13:21:24.306Z,12.55
2022-11-25T13:23:56.212Z,12.10
2022-11-25T13:27:01.942Z,11.68
2022-11-25T13:30:01.455Z,11.75
2022-11-25T13:32:46.447Z,12.48
2022-11-25T13:35:53.729Z,12.60
2022-11-25T13:39:05.531Z,12.57
2022-11-25T13:41:43.045Z,12.18
2022-11-25T13:44:21.751Z,13.55
2022-11-25T13:46:52.848Z,16.27
2022-11-25T13:49:31.099Z,15.48
2022-11-25T13:52:04.974Z,17.50
2022-11-25T13:54:42.151Z,19.38
2022-11-25T13:57:24.946Z,22.88
2022-11-25T13:59:56.850Z,23.40
2022-11-25T14:02:35.858Z,24.35
2022-11-25T14:05:37.221Z,28.00
2022-11-25T14:08:16.375Z,25.70
2022-11-25T14:10:52.001Z,29.35
2022-11-25T14:13:57.510Z,38.20
2022-11-25T14:16:44.641Z,46.30
2022-11-25T14:19:54.243Z,33.05
2022-11-25T14:22:35.880Z,22.38
2022-11-25T14:25:17.340Z,20.50
2022-11-25T14:27:48.241Z,23.02
2022-11-25T14:30:17.675Z,23.23
2022-11-25T14:32:53.384Z,23.92
2022-11-25T14:35:24.037Z,23.75
2022-11-25T14:37:57.897Z,21.85
2022-11-25T14:40:33.114Z,19.80
2022-11-25T14:43:07.224Z,18.40
2022-11-25T14:45:37.148Z,20.25
2022-11-25T14:48:16.297Z,17.90
2022-11-25T14:50:56.500Z,18.20
2022-11-25T14:53:25.725Z,17.73
2022-11-25T14:55:57.880Z,18.33
2022-11-25T14:58:26.202Z,17.60
2022-11-25T15:01:01.438Z,16.40
2022-11-25T15:03:30.192Z,16.05
2022-11-25T15:06:02.211Z,16.50
2022-11-25T15:08:38.767Z,15.75
2022-11-25T15:11:14.918Z,17.33
2022-11-25T15:13:45.049Z,18.40
2022-11-25T15:16:15.853Z,17.55
2022-11-25T15:18:51.181Z,17.40
2022-11-25T15:21:24.286Z,18.75
2022-11-25T15:23:52.517Z,19.20
2022-11-25T15:26:23.959Z,18.85
2022-11-25T15:28:57.323Z,18.15
2022-11-25T15:31:29.182Z,19.63
2022-11-25T15:34:03.988Z,22.52
2022-11-25T15:36:32.182Z,37.85
2022-11-25T15:39:16.226Z,43.85
2022-11-25T15:41:48.846Z,51.83
2022-11-25T15:44:23.459Z,57.17
2022-11-25T15:47:02.389Z,46.00
2022-11-25T15:49:30.464Z,48.25
2022-11-25T15:52:02.037Z,45.30
2022-11-25T15:54:32.862Z,47.13
2022-11-25T15:57:15.378Z,50.38
2022-11-25T15:59:48.344Z,37.97
2022-11-25T16:02:36.589Z,28.15
2022-11-25T16:05:33.660Z,21.45
2022-11-25T16:08:04.841Z,23.25
2022-11-25T16:10:35.016Z,23.08
2022-11-25T16:13:36.660Z,22.25
2022-11-25T16:16:18.286Z,20.38
2022-11-25T16:19:08.513Z,24.52
2022-11-25T16:21:43.294Z,31.45
2022-11-25T16:24:23.446Z,32.97
2022-11-25T16:26:55.075Z,35.58
2022-11-25T16:29:29.357Z,37.80
2022-11-25T16:31:57.400Z,30.90
2022-11-25T16:34:26.422Z,21.92
2022-11-25T16:36:54.629Z,20.30
2022-11-25T16:39:22.736Z,19.65
2022-11-25T16:42:00.575Z,21.27
2022-11-25T16:44:30.795Z,20.70
2022-11-25T16:46:59.308Z,23.55
2022-11-25T16:49:27.854Z,22.95
2022-11-25T16:51:55.992Z,24.95
2022-11-25T16:54:25.149Z,30.20
2022-11-25T16:56:55.799Z,56.78
2022-11-25T16:59:31.241Z,65.85
2022-11-25T17:02:00.727Z,72.75
2022-11-25T17:04:29.102Z,66.10
2022-11-25T17:07:31.072Z,67.97
2022-11-25T17:09:46.740Z,66.35
2022-11-25T17:12:19.418Z,73.63
2022-11-25T17:14:50.022Z,64.00
2022-11-25T17:17:24.652Z,65.88
2022-11-25T17:19:53.738Z,63.50
2022-11-25T17:22:24.380Z,63.95
2022-11-25T17:24:53.022Z,58.60
2022-11-25T17:27:26.552Z,71.35
2022-11-25T17:29:58.334Z,67.88
2022-11-25T17:32:28.317Z,60.47
2022-11-25T17:34:56.604Z,57.58
2022-11-25T17:37:27.925Z,56.88
2022-11-25T17:39:58.144Z,60.22
2022-11-25T17:42:30.226Z,60.28
2022-11-25T17:45:00.247Z,63.42
2022-11-25T17:47:28.541Z,69.32
2022-11-25T17:49:57.953Z,68.70
2022-11-25T17:52:26.566Z,63.50
2022-11-25T17:54:54.997Z,51.38
2022-11-25T17:57:29.382Z,45.80
2022-11-25T18:00:00.258Z,38.50
2022-11-25T18:02:28.640Z,37.92
2022-11-25T18:04:56.901Z,39.80
2022-11-25T18:07:25.517Z,42.13
2022-11-25T18:09:54.003Z,49.20
2022-11-25T18:12:27.748Z,47.38
2022-11-25T18:14:57.262Z,34.38
2022-11-25T18:17:26.785Z,29.55
2022-11-25T18:19:55.673Z,30.35
2022-11-25T18:22:25.452Z,27.70
2022-11-25T18:24:54.624Z,29.17
2022-11-25T18:27:26.958Z,46.08
2022-11-25T18:29:57.430Z,51.88
2022-11-25T18:32:27.330Z,60.65
2022-11-25T18:34:55.583Z,64.60
2022-11-25T18:37:23.880Z,68.28
2022-11-25T18:39:52.127Z,63.08
2022-11-25T18:42:25.915Z,31.85
2022-11-25T18:44:57.253Z,24.83
2022-11-25T18:47:25.516Z,24.08
2022-11-25T18:49:56.385Z,22.90
2022-11-25T18:52:27.285Z,22.55
2022-11-25T18:54:55.805Z,35.00
2022-11-25T18:57:23.966Z,34.03
2022-11-25T19:00:24.460Z,36.83
2022-11-25T19:02:42.445Z,36.25
2022-11-25T19:05:21.439Z,40.67
2022-11-25T19:07:51.180Z,40.97
2022-11-25T19:10:19.923Z,38.08
2022-11-25T19:12:52.450Z,38.78
2022-11-25T19:15:27.710Z,43.28
2022-11-25T19:17:59.638Z,44.53
2022-11-25T19:20:30.449Z,45.15
2022-11-25T19:23:01.098Z,39.72
2022-11-25T19:25:30.969Z,65.95
2022-11-25T19:28:02.602Z,161.82
2022-11-25T19:30:33.523Z,107.10
2022-11-25T19:33:03.461Z,86.55
2022-11-25T19:35:38.133Z,94.53
2022-11-25T19:38:12.686Z,77.50
2022-11-25T19:40:41.601Z,97.88
2022-11-25T19:43:09.913Z,69.68
2022-11-25T19:45:38.972Z,67.68
2022-11-25T19:48:09.743Z,64.35
2022-11-25T19:50:40.487Z,61.67
2022-11-25T19:53:14.419Z,64.35
2022-11-25T19:55:42.519Z,61.13
2022-11-25T19:58:10.851Z,63.35
2022-11-25T20:00:39.354Z,62.08
2022-11-25T20:03:17.637Z,67.05
2022-11-25T20:05:50.444Z,67.93
2022-11-25T20:08:20.725Z,71.55
2022-11-25T20:10:49.655Z,74.78
2022-11-25T20:13:18.322Z,71.35
2022-11-25T20:15:47.218Z,83.20
2022-11-25T20:18:19.468Z,83.90
2022-11-25T20:20:53.791Z,99.38
2022-11-25T20:23:30.342Z,92.35
2022-11-25T20:25:58.416Z,94.80
2022-11-25T20:28:30.106Z,92.85
2022-11-25T20:30:59.236Z,92.80
2022-11-25T20:33:28.241Z,88.95
2022-11-25T20:36:03.445Z,86.78
2022-11-25T20:38:36.009Z,97.70
2022-11-25T20:41:06.722Z,85.10
2022-11-25T20:43:39.054Z,66.28
2022-11-25T20:46:13.190Z,65.10
2022-11-25T20:48:42.613Z,66.53
2022-11-25T20:51:18.032Z,65.90
2022-11-25T20:53:48.360Z,58.78
2022-11-25T20:56:18.006Z,57.83
2022-11-25T20:58:46.951Z,49.20
2022-11-25T21:01:16.014Z,51.92
2022-11-25T21:03:47.522Z,52.60
2022-11-25T21:06:27.664Z,50.63
2022-11-25T21:08:58.275Z,52.55
2022-11-25T21:11:28.084Z,50.28
2022-11-25T21:13:56.355Z,49.95
2022-11-25T21:16:25.683Z,53.22
2022-11-25T21:18:54.004Z,54.10
2022-11-25T21:21:33.137Z,58.75
2022-11-25T21:24:08.797Z,62.17
2022-11-25T21:26:37.453Z,70.75
2022-11-25T21:29:06.137Z,70.53
2022-11-25T21:31:36.660Z,63.08
2022-11-25T21:34:12.336Z,67.82
2022-11-25T21:36:44.232Z,61.45
2022-11-25T21:39:24.390Z,61.80
2022-11-25T21:41:54.439Z,63.92
2022-11-25T21:44:28.905Z,59.70
2022-11-25T21:46:57.553Z,61.70
2022-11-25T21:49:26.275Z,60.95
2022-11-25T21:51:55.926Z,60.35
2022-11-25T21:54:24.158Z,61.75
2022-11-25T21:56:53.223Z,63.35
2022-11-25T21:59:24.132Z,62.88
2022-11-25T22:01:52.622Z,60.67
2022-11-25T22:04:22.722Z,63.83
2022-11-25T22:06:51.944Z,64.70
2022-11-25T22:09:22.253Z,63.83
2022-11-25T22:11:53.149Z,66.00
2022-11-25T22:14:28.733Z,64.10
2022-11-25T22:16:58.189Z,60.30
2022-11-25T22:19:28.652Z,69.82
2022-11-25T22:21:57.093Z,64.38
2022-11-25T22:24:27.038Z,63.25
2022-11-25T22:26:58.172Z,63.53
2022-11-25T22:29:35.818Z,58.83
2022-11-25T22:32:12.421Z,63.03
2022-11-25T22:34:40.882Z,57.55
2022-11-25T22:37:16.967Z,39.83
2022-11-25T22:42:21.311Z,34.67
2022-11-25T22:44:51.113Z,38.55
2022-11-25T22:47:27.263Z,41.33
2022-11-25T22:49:55.754Z,42.70
2022-11-25T22:52:28.608Z,44.97
2022-11-25T22:55:00.624Z,43.30
2022-11-25T22:57:28.614Z,40.80
2022-11-25T22:59:56.627Z,36.00
2022-11-25T23:02:30.041Z,32.63
2022-11-25T23:04:58.280Z,33.53
2022-11-25T23:07:26.782Z,36.45
2022-11-25T23:09:56.212Z,35.10
2022-11-25T23:12:25.916Z,34.53
2022-11-25T23:14:53.911Z,33.90
2022-11-25T23:17:24.614Z,36.45
2022-11-25T23:19:53.889Z,37.70
2022-11-25T23:22:22.401Z,36.90
2022-11-25T23:24:51.715Z,36.42
2022-11-25T23:27:19.755Z,39.95
2022-11-25T23:29:49.573Z,41.50
2022-11-25T23:32:21.349Z,36.80
2022-11-25T23:34:51.091Z,35.95
2022-11-25T23:37:19.401Z,32.58
2022-11-25T23:39:54.336Z,34.08
2022-11-25T23:42:22.436Z,35.47
2022-11-25T23:44:52.125Z,37.80
2022-11-25T23:47:23.004Z,38.28
2022-11-25T23:49:53.615Z,37.55
2022-11-25T23:52:24.000Z,38.33
2022-11-25T23:54:53.972Z,40.97
2022-11-25T23:57:24.166Z,38.35
2022-11-25T23:59:53.741Z,37.20
